Time;durP1;ratioP1;P1;durP2;ratioP2;P2;SDS_P1;SDS_P2;PMS_P1;PMS_P2;Temp;Humidity;BMP_temperature;BMP_pressure;BME280_temperature;BME280_humidity;BME280_pressure;Samples;Min_cycle;Max_cycle;Signal;HPM_P1;HPM_P2
2020/12/08 00:02:11;;;;;;;49.00;26.33;;;;;;;2.02;75.31;99019.16;5078320;28;20467;-44
2020/12/08 00:04:38;;;;;;;47.65;25.15;;;;;;;2.09;75.27;99026.00;5077400;28;20429;-45
2020/12/08 00:07:05;;;;;;;51.08;27.25;;;;;;;1.98;75.86;99012.25;5078496;28;20048;-45
2020/12/08 00:09:31;;;;;;;49.00;26.73;;;;;;;2.00;75.88;99013.97;5077186;28;20045;-45
2020/12/08 00:11:57;;;;;;;47.95;26.05;;;;;;;2.03;75.81;99019.13;5044325;28;20118;-45
2020/12/08 00:14:23;;;;;;;49.10;26.48;;;;;;;1.98;75.97;99010.56;5077223;28;20049;-45
2020/12/08 00:16:48;;;;;;;45.83;25.42;;;;;;;1.99;75.90;99012.28;5078064;28;20045;-45
2020/12/08 00:19:14;;;;;;;47.00;27.77;;;;;;;2.01;75.78;99014.84;5077971;28;20388;-45
2020/12/08 00:21:41;;;;;;;55.88;27.33;;;;;;;1.95;76.07;99020.91;5078195;28;20052;-45
2020/12/08 00:24:07;;;;;;;51.05;27.45;;;;;;;2.08;75.59;99022.59;5078160;28;20119;-45
2020/12/08 00:26:33;;;;;;;48.33;26.15;;;;;;;2.09;75.27;99013.09;5078083;28;20091;-45
2020/12/08 00:28:59;;;;;;;56.70;29.13;;;;;;;2.20;74.84;99007.88;5077112;28;20045;-45
2020/12/08 00:31:28;;;;;;;48.70;26.45;;;;;;;2.05;75.30;99011.41;5077678;28;20052;-45
2020/12/08 00:33:54;;;;;;;49.20;27.95;;;;;;;2.10;75.40;99010.50;5077868;28;20053;-45
2020/12/08 00:36:20;;;;;;;54.25;27.77;;;;;;;2.09;75.07;99011.38;5077879;28;20056;-45
2020/12/08 00:38:47;;;;;;;49.65;26.15;;;;;;;2.03;75.42;99006.22;5077882;28;20052;-45
2020/12/08 00:41:16;;;;;;;47.47;24.85;;;;;;;1.95;75.59;99013.16;5078670;28;20135;-45
2020/12/08 00:43:42;;;;;;;50.05;26.55;;;;;;;1.89;76.15;99015.75;5077322;28;20040;-45
2020/12/08 00:46:12;;;;;;;47.30;26.50;;;;;;;2.03;75.37;99013.97;5077506;28;20051;-45
2020/12/08 00:48:38;;;;;;;46.35;25.92;;;;;;;1.96;75.63;99016.59;5077239;28;20334;-45
2020/12/08 00:51:04;;;;;;;46.80;24.67;;;;;;;1.94;75.72;99011.41;5076465;28;20052;-45
2020/12/08 00:53:30;;;;;;;46.25;26.15;;;;;;;1.96;75.51;99012.28;5076728;28;20064;-45
2020/12/08 00:55:56;;;;;;;50.28;28.00;;;;;;;1.98;75.59;98997.66;5076351;28;20059;-44
2020/12/08 00:58:22;;;;;;;46.28;25.95;;;;;;;1.94;75.47;98997.66;5076439;28;20036;-45
2020/12/08 01:00:49;;;;;;;47.13;26.35;;;;;;;1.89;75.52;98995.09;5077386;28;20052;-45
2020/12/08 01:03:15;;;;;;;49.78;26.80;;;;;;;1.84;76.12;98992.50;5076147;28;20055;-45
2020/12/08 01:05:41;;;;;;;47.53;25.50;;;;;;;1.92;75.59;98999.34;5059737;28;20128;-45
2020/12/08 01:08:07;;;;;;;48.85;26.17;;;;;;;1.93;75.67;98999.38;5076430;28;20052;-44
2020/12/08 01:10:34;;;;;;;48.17;25.35;;;;;;;1.83;75.67;99006.28;5076004;28;20440;-45
2020/12/08 01:13:00;;;;;;;49.25;26.63;;;;;;;1.85;75.88;99003.69;5076330;28;20058;-45
2020/12/08 01:15:26;;;;;;;54.83;27.58;;;;;;;2.00;75.28;99005.38;5076255;28;20053;-45
2020/12/08 01:17:53;;;;;;;43.63;24.20;;;;;;;1.89;75.70;99010.59;5076214;28;20052;-45
2020/12/08 01:20:19;;;;;;;48.70;24.77;;;;;;;1.86;75.71;99013.19;5076782;28;20131;-45
2020/12/08 01:22:48;;;;;;;60.03;28.27;;;;;;;1.72;75.89;99012.31;5059847;28;20098;-45
2020/12/08 01:25:15;;;;;;;52.35;25.77;;;;;;;1.77;76.16;99018.34;5076061;28;20048;-45
2020/12/08 01:27:42;;;;;;;66.35;29.23;;;;;;;1.76;76.34;99011.47;5076083;28;20052;-45
2020/12/08 01:30:09;;;;;;;56.90;28.65;;;;;;;1.75;76.24;99015.75;5075654;28;20044;-45
2020/12/08 01:32:38;;;;;;;54.80;27.45;;;;;;;1.73;76.07;99009.75;5075970;28;20079;-45
2020/12/08 01:35:05;;;;;;;60.47;29.02;;;;;;;1.70;76.31;99012.34;5075605;28;20048;-45
2020/12/08 01:37:32;;;;;;;60.38;29.02;;;;;;;1.64;76.90;99009.78;5076713;28;20052;-45
2020/12/08 01:39:59;;;;;;;50.85;24.88;;;;;;;1.66;76.65;99010.63;5075507;28;20479;-45
2020/12/08 01:42:27;;;;;;;56.30;26.77;;;;;;;1.79;76.08;99011.47;5076973;28;20068;-45
2020/12/08 01:44:54;;;;;;;51.03;26.70;;;;;;;1.79;75.96;99011.47;5075465;28;20445;-45
2020/12/08 01:47:22;;;;;;;49.17;26.17;;;;;;;1.73;76.13;98989.09;5075488;28;20045;-45
2020/12/08 01:49:48;;;;;;;50.80;26.98;;;;;;;1.83;75.93;98997.69;5075305;28;20055;-45
2020/12/08 01:52:16;;;;;;;50.60;25.95;;;;;;;1.74;76.28;98987.38;5058841;28;20433;-45
2020/12/08 01:54:43;;;;;;;45.92;24.08;;;;;;;1.68;76.44;98987.38;5075750;28;20056;-45
2020/12/08 01:57:09;;;;;;;48.38;25.10;;;;;;;1.62;76.55;98986.53;5076779;28;20182;-45
2020/12/08 01:59:35;;;;;;;50.28;27.35;;;;;;;1.72;76.21;98987.38;5075566;28;20326;-45
2020/12/08 02:02:14;;;;;;;45.65;23.95;;;;;;;1.64;76.33;98995.13;5075166;28;20105;-45
2020/12/08 02:04:41;;;;;;;45.53;23.48;;;;;;;1.55;76.72;98999.47;5058926;28;20052;-45
2020/12/08 02:07:07;;;;;;;48.70;23.63;;;;;;;1.64;76.41;98999.44;5058693;28;20044;-45
2020/12/08 02:09:36;;;;;;;47.47;25.25;;;;;;;1.64;76.34;99002.88;5075173;28;20051;-45
2020/12/08 02:12:04;;;;;;;53.50;26.70;;;;;;;1.78;75.98;99004.56;5059021;28;20048;-45
2020/12/08 02:14:31;;;;;;;50.17;26.15;;;;;;;1.69;76.05;98997.72;5058987;28;20055;-45
2020/12/08 02:16:58;;;;;;;55.33;27.25;;;;;;;1.64;76.17;98997.72;5075105;28;20447;-45
2020/12/08 02:19:24;;;;;;;60.17;28.65;;;;;;;1.69;75.98;98996.84;5075950;28;20049;-45
2020/12/08 02:21:50;;;;;;;59.60;30.80;;;;;;;1.61;76.27;98995.13;5075090;28;20119;-45
2020/12/08 02:24:18;;;;;;;50.80;27.60;;;;;;;1.63;76.05;98996.00;5077062;28;20137;-45
2020/12/08 02:26:46;;;;;;;55.38;27.63;;;;;;;1.73;75.69;99001.16;5059085;28;20063;-45
2020/12/08 02:29:13;;;;;;;77.32;31.85;;;;;;;1.55;76.23;99002.88;5075069;28;20040;-45
2020/12/08 02:31:42;;;;;;;111.25;41.60;;;;;;;1.52;76.30;99007.19;5076157;28;20437;-45
2020/12/08 02:34:10;;;;;;;113.78;43.30;;;;;;;1.62;75.90;99009.75;5075008;28;20041;-44
2020/12/08 02:36:36;;;;;;;103.60;41.75;;;;;;;1.51;76.18;99008.06;5076104;28;20207;-45
2020/12/08 02:39:03;;;;;;;99.53;39.30;;;;;;;1.46;76.42;99015.81;5074888;28;20428;-45
2020/12/08 02:41:29;;;;;;;88.65;34.25;;;;;;;1.48;76.26;99008.94;5075807;28;20094;-45
2020/12/08 02:43:55;;;;;;;132.27;46.90;;;;;;;1.56;76.12;99019.22;5076327;28;20413;-45
2020/12/08 02:46:22;;;;;;;77.03;33.40;;;;;;;1.62;75.45;99009.75;5075427;28;20041;-45
2020/12/08 02:48:49;;;;;;;63.28;28.95;;;;;;;1.48;75.89;99010.66;5074982;28;20396;-45
2020/12/08 02:51:18;;;;;;;118.82;42.70;;;;;;;1.48;75.87;99011.50;5075070;28;20067;-44
2020/12/08 02:53:47;;;;;;;105.57;40.42;;;;;;;1.44;75.84;99014.13;5075002;28;20075;-44
2020/12/08 02:56:13;;;;;;;92.40;38.10;;;;;;;1.43;75.81;99012.38;5075346;28;20068;-44
2020/12/08 02:58:39;;;;;;;70.10;31.83;;;;;;;1.24;76.63;99014.13;5076163;28;20350;-44
2020/12/08 03:01:05;;;;;;;65.22;31.80;;;;;;;1.46;76.04;99015.81;5058393;28;20140;-45
2020/12/08 03:03:31;;;;;;;50.95;26.23;;;;;;;1.32;76.34;99020.13;5075499;28;20061;-45
2020/12/08 03:05:57;;;;;;;64.88;28.77;;;;;;;1.39;76.20;99014.94;5076332;28;20044;-45
2020/12/08 03:08:24;;;;;;;64.65;29.58;;;;;;;1.38;75.90;99013.25;5078775;28;20047;-44
2020/12/08 03:10:50;;;;;;;49.78;26.10;;;;;;;1.29;76.09;99012.38;5078222;28;20048;-44
2020/12/08 03:13:18;;;;;;;49.10;26.58;;;;;;;1.35;76.24;99017.53;5078392;28;20327;-44
2020/12/08 03:15:49;;;;;;;71.57;30.38;;;;;;;1.28;76.34;99015.84;5078606;28;20048;-45
2020/12/08 03:18:15;;;;;;;61.50;29.80;;;;;;;1.27;76.35;99014.09;5078530;28;20346;-45
2020/12/08 03:20:40;;;;;;;61.58;28.48;;;;;;;1.23;76.41;99026.13;5078153;28;20437;-44
2020/12/08 03:23:07;;;;;;;65.47;28.88;;;;;;;1.22;76.45;99019.28;5078213;28;20051;-45
2020/12/08 03:25:35;;;;;;;58.35;26.55;;;;;;;1.25;76.29;99019.28;5078413;28;20045;-45
2020/12/08 03:28:02;;;;;;;49.60;25.27;;;;;;;1.31;76.04;99031.31;5078379;28;20114;-45
2020/12/08 03:30:32;;;;;;;47.08;24.50;;;;;;;1.14;76.50;99024.44;5078202;28;20052;-44
2020/12/08 03:32:58;;;;;;;44.67;23.65;;;;;;;1.09;76.84;99014.97;5078252;28;20071;-45
2020/12/08 03:35:25;;;;;;;44.75;22.17;;;;;;;1.15;76.66;99014.97;5078263;28;20119;-45
2020/12/08 03:37:53;;;;;;;44.75;23.58;;;;;;;1.18;76.52;99014.97;5078805;28;20368;-44
2020/12/08 03:40:21;;;;;;;43.70;23.50;;;;;;;1.22;76.40;99011.53;5061705;28;20051;-45
2020/12/08 03:42:47;;;;;;;38.60;22.42;;;;;;;1.11;76.82;99024.44;5077801;28;20449;-44
2020/12/08 03:45:15;;;;;;;41.72;23.15;;;;;;;1.15;76.47;99021.00;5078915;28;20086;-45
2020/12/08 03:47:51;;;;;;;43.10;21.60;;;;;;;1.26;76.11;99020.13;5077735;28;20079;-45
2020/12/08 03:50:22;;;;;;;41.75;23.55;;;;;;;1.10;76.52;99019.25;5077920;28;20052;-44
2020/12/08 03:52:50;;;;;;;41.55;20.52;;;;;;;1.00;77.19;99018.38;5077865;28;20420;-45
2020/12/08 03:55:16;;;;;;;45.35;23.63;;;;;;;1.07;76.53;99016.69;5077657;28;20437;-44
2020/12/08 03:57:43;;;;;;;41.90;20.90;;;;;;;1.00;76.70;99017.53;5078649;28;20083;-45
2020/12/08 04:00:12;;;;;;;44.50;22.02;;;;;;;1.07;76.28;99014.97;5061703;28;20126;-45
2020/12/08 04:02:38;;;;;;;43.85;21.77;;;;;;;1.05;76.38;99016.69;5078130;28;20056;-45
2020/12/08 04:05:06;;;;;;;39.72;19.77;;;;;;;1.01;76.40;99016.66;5078560;28;20059;-45
2020/12/08 04:07:32;;;;;;;41.95;22.27;;;;;;;1.01;76.43;99019.25;5078301;28;20428;-45
2020/12/08 04:09:57;;;;;;;40.03;21.40;;;;;;;1.03;76.03;99009.81;5077635;28;20464;-44
2020/12/08 04:12:23;;;;;;;38.70;21.40;;;;;;;1.04;76.03;99012.41;5077886;28;20060;-45
2020/12/08 04:14:49;;;;;;;40.80;21.85;;;;;;;0.92;76.38;99018.41;5077559;28;20064;-45
2020/12/08 04:17:18;;;;;;;44.33;22.27;;;;;;;0.90;76.48;99012.38;5076687;28;20044;-45
2020/12/08 04:19:46;;;;;;;42.50;20.77;;;;;;;0.87;76.37;99009.78;5077612;28;20053;-45
2020/12/08 04:22:13;;;;;;;37.75;20.67;;;;;;;0.77;76.71;99018.38;5077294;28;20048;-44
2020/12/08 04:24:45;;;;;;;38.47;20.13;;;;;;;0.82;76.40;99011.50;5077716;28;20098;-44
2020/12/08 04:27:11;;;;;;;40.92;22.15;;;;;;;0.74;76.58;99008.03;5060489;28;20045;-45
2020/12/08 04:29:46;;;;;;;39.47;21.05;;;;;;;0.74;76.56;99009.75;5077221;28;20059;-45
2020/12/08 04:32:13;;;;;;;40.85;20.52;;;;;;;0.69;76.53;99012.34;5076914;28;20044;-45
2020/12/08 04:34:39;;;;;;;35.58;19.58;;;;;;;0.70;76.61;99012.34;5077130;28;20051;-45
2020/12/08 04:37:04;;;;;;;41.83;20.33;;;;;;;0.68;76.61;99015.75;5077677;28;20036;-44
2020/12/08 04:39:30;;;;;;;46.88;22.48;;;;;;;0.75;76.41;99025.25;5077884;28;20079;-44
2020/12/08 04:41:56;;;;;;;37.95;20.33;;;;;;;0.60;76.95;99028.66;5077792;28;20059;-44
2020/12/08 04:44:22;;;;;;;41.83;22.33;;;;;;;0.70;76.91;99039.84;5077799;28;20044;-44
2020/12/08 04:46:54;;;;;;;40.53;21.75;;;;;;;0.50;77.38;99034.63;5076908;28;20352;-44
2020/12/08 04:49:21;;;;;;;40.10;21.23;;;;;;;0.48;77.77;99036.34;5076504;28;20040;-44
2020/12/08 04:51:47;;;;;;;39.35;20.52;;;;;;;0.50;77.37;99023.47;5077642;28;20109;-44
2020/12/08 04:54:13;;;;;;;39.05;19.63;;;;;;;0.52;77.71;99026.88;5076512;28;20045;-44
2020/12/08 04:56:39;;;;;;;38.13;19.13;;;;;;;0.47;77.83;99037.19;5077304;28;20407;-44
2020/12/08 04:59:06;;;;;;;39.55;20.55;;;;;;;0.44;77.89;99040.63;5078059;28;20059;-44
2020/12/08 05:01:32;;;;;;;40.65;20.50;;;;;;;0.40;77.53;99048.34;5077322;28;20123;-44
2020/12/08 05:04:01;;;;;;;35.60;19.67;;;;;;;0.37;78.02;99054.34;5077020;28;20053;-44
2020/12/08 05:06:28;;;;;;;33.42;20.17;;;;;;;0.40;77.62;99049.19;5076481;28;20194;-44
2020/12/08 05:09:07;;;;;;;39.08;21.33;;;;;;;0.41;77.47;99044.91;5076692;28;20057;-44
2020/12/08 05:11:34;;;;;;;38.30;20.25;;;;;;;0.35;77.61;99057.75;5076124;28;20482;-44
2020/12/08 05:14:06;;;;;;;35.58;19.15;;;;;;;0.41;77.38;99053.50;5076294;28;20087;-44
2020/12/08 05:16:33;;;;;;;34.13;15.83;;;;;;;0.26;77.81;99061.19;5076348;28;20330;-44
2020/12/08 05:19:08;;;;;;;36.00;19.20;;;;;;;0.35;77.25;99068.91;5076737;28;20040;-44
2020/12/08 05:21:34;;;;;;;37.78;20.13;;;;;;;0.26;77.44;99071.47;5076928;28;20052;-44
2020/12/08 05:24:00;;;;;;;57.85;27.90;;;;;;;0.38;77.21;99073.22;5076768;28;20055;-44
2020/12/08 05:26:27;;;;;;;71.47;35.63;;;;;;;0.39;77.00;99070.69;5076612;28;20044;-45
2020/12/08 05:29:00;;;;;;;60.22;30.50;;;;;;;0.36;77.06;99068.09;5077094;28;20055;-44
2020/12/08 05:31:27;;;;;;;98.00;42.72;;;;;;;0.31;77.21;99074.91;5076934;28;20403;-44
2020/12/08 05:33:58;;;;;;;100.00;38.60;;;;;;;0.34;77.09;99082.66;5076852;28;20135;-44
2020/12/08 05:36:26;;;;;;;76.00;33.38;;;;;;;0.20;77.35;99071.44;5076804;28;20052;-44
2020/12/08 05:38:51;;;;;;;82.82;34.00;;;;;;;0.25;77.47;99077.47;5059211;28;20052;-44
2020/12/08 05:41:17;;;;;;;106.40;40.90;;;;;;;0.27;77.54;99104.09;5075847;28;20048;-44
2020/12/08 05:43:43;;;;;;;179.07;57.72;;;;;;;0.25;77.49;99085.19;5059245;28;20415;-45
2020/12/08 05:46:09;;;;;;;144.05;46.28;;;;;;;0.23;77.63;99081.78;5076638;28;20048;-45
2020/12/08 05:48:35;;;;;;;44.95;22.17;;;;;;;0.23;77.64;99090.34;5076381;28;20036;-45
2020/12/08 05:51:04;;;;;;;44.25;20.45;;;;;;;0.28;77.34;99100.66;5076492;28;20048;-44
2020/12/08 05:53:30;;;;;;;39.83;18.98;;;;;;;0.19;77.53;99087.72;5076217;28;20061;-44
2020/12/08 05:56:06;;;;;;;36.38;19.27;;;;;;;0.20;77.32;99089.47;5076531;28;20072;-45
2020/12/08 05:58:32;;;;;;;37.80;20.90;;;;;;;0.19;77.46;99080.88;5076215;28;20048;-45
2020/12/08 06:01:02;;;;;;;37.63;20.10;;;;;;;0.13;77.43;99075.72;5058658;28;20445;-44
2020/12/08 06:03:28;;;;;;;44.50;21.98;;;;;;;0.15;77.68;99073.13;5076034;28;20049;-45
2020/12/08 06:05:54;;;;;;;40.42;21.73;;;;;;;0.01;77.61;99067.06;5075329;28;20066;-44
2020/12/08 06:08:21;;;;;;;43.63;22.60;;;;;;;0.05;77.84;99063.63;5059102;28;20048;-44
2020/12/08 06:10:48;;;;;;;36.72;19.15;;;;;;;0.04;77.72;99060.19;5076320;28;20073;-44
2020/12/08 06:13:26;;;;;;;40.22;20.77;;;;;;;0.08;77.85;99069.66;5075176;28;20048;-44
2020/12/08 06:15:53;;;;;;;39.65;20.33;;;;;;;0.05;77.70;99072.22;5076465;28;20124;-53
2020/12/08 06:18:32;;;;;;;45.30;21.27;;;;;;;0.19;77.20;99067.97;5076307;28;20056;-53
2020/12/08 06:20:58;;;;;;;47.97;25.52;;;;;;;0.08;77.71;99085.13;5075520;28;20048;-53
2020/12/08 06:23:24;;;;;;;52.67;26.65;;;;;;;0.18;77.78;99096.31;5076254;28;20056;-52
2020/12/08 06:26:22;;;;;;;69.20;42.80;;;;;;;0.16;77.51;99109.22;5075943;28;20498;-52
2020/12/08 06:28:49;;;;;;;101.35;69.72;;;;;;;0.18;77.96;99115.22;5075058;28;20429;-53
2020/12/08 06:31:15;;;;;;;144.70;81.07;;;;;;;0.22;78.06;99111.78;5075851;28;20060;-52
2020/12/08 06:33:51;;;;;;;70.55;36.83;;;;;;;0.36;77.42;99113.59;5076057;28;20060;-52
2020/12/08 06:36:18;;;;;;;149.02;83.15;;;;;;;0.29;77.81;99114.41;5076175;28;20403;-54
2020/12/08 06:38:43;;;;;;;106.78;42.10;;;;;;;0.27;77.97;99119.56;5076068;28;20063;-52
2020/12/08 06:41:09;;;;;;;137.57;76.00;;;;;;;0.33;77.91;99134.19;5077348;28;20044;-52
2020/12/08 06:43:41;;;;;;;85.82;39.65;;;;;;;0.41;77.69;99117.03;5080108;28;20052;-52
2020/12/08 06:46:08;;;;;;;86.28;45.72;;;;;;;0.44;77.64;99115.34;5080426;28;20082;-53
2020/12/08 06:48:35;;;;;;;75.50;38.90;;;;;;;0.48;77.40;99108.47;5080013;28;20352;-52
2020/12/08 06:51:02;;;;;;;45.38;25.17;;;;;;;0.56;77.23;99116.28;5079868;28;20044;-52
2020/12/08 06:53:28;;;;;;;53.83;28.27;;;;;;;0.46;77.29;99123.09;5079088;28;20086;-52
2020/12/08 06:55:53;;;;;;;59.92;32.15;;;;;;;0.47;77.55;99132.53;5079578;28;20044;-52
2020/12/08 06:58:20;;;;;;;50.35;27.60;;;;;;;0.48;77.67;99129.09;5079536;28;20052;-52
2020/12/08 07:00:45;;;;;;;73.65;33.65;;;;;;;0.52;77.52;99117.97;5078588;28;20044;-52
2020/12/08 07:03:15;;;;;;;75.20;37.97;;;;;;;0.66;77.12;99107.72;5079301;28;20199;-52
2020/12/08 07:05:41;;;;;;;74.55;39.25;;;;;;;0.63;77.05;99102.53;5079419;28;20067;-52
2020/12/08 07:08:08;;;;;;;84.45;39.67;;;;;;;0.57;77.23;99107.66;5079638;28;20429;-52
2020/12/08 07:10:40;;;;;;;44.85;25.17;;;;;;;0.56;77.63;99113.69;5078334;28;20068;-52
2020/12/08 07:13:13;;;;;;;43.38;24.52;;;;;;;0.57;77.47;99111.09;5079314;28;20134;-52
2020/12/08 07:15:39;;;;;;;43.70;26.08;;;;;;;0.54;77.58;99126.56;5079490;28;20045;-52
2020/12/08 07:18:06;;;;;;;57.95;33.97;;;;;;;0.65;77.37;99126.59;5078414;28;20117;-52
2020/12/08 07:20:32;;;;;;;54.10;29.02;;;;;;;0.58;77.81;99122.28;5079041;28;20441;-52
2020/12/08 07:23:01;;;;;;;56.67;30.55;;;;;;;0.72;77.34;99133.50;5078521;28;20052;-52
2020/12/08 07:25:26;;;;;;;144.77;53.55;;;;;;;0.76;77.20;99130.09;5079604;28;20452;-52
2020/12/08 07:27:53;;;;;;;151.32;54.30;;;;;;;0.81;77.12;99130.09;5078341;28;20053;-52
2020/12/08 07:30:20;;;;;;;219.15;74.93;;;;;;;0.95;76.56;99132.72;5079336;28;20402;-53
2020/12/08 07:32:46;;;;;;;202.18;71.43;;;;;;;1.07;76.11;99135.31;5078327;28;20075;-53
2020/12/08 07:35:25;;;;;;;319.90;112.05;;;;;;;0.99;75.96;99145.63;5078800;28;20052;-53
2020/12/08 07:37:55;;;;;;;86.35;37.22;;;;;;;0.96;76.71;99144.75;5079178;28;20052;-44
2020/12/08 07:40:20;;;;;;;101.25;41.25;;;;;;;0.93;76.65;99143.88;5078776;28;20055;-44
2020/12/08 07:42:51;;;;;;;52.63;29.45;;;;;;;1.07;76.40;99146.53;5079131;28;20048;-44
2020/12/08 07:45:18;;;;;;;57.05;28.52;;;;;;;0.93;76.44;99155.91;5077762;28;20059;-44
2020/12/08 07:47:45;;;;;;;50.30;27.58;;;;;;;0.93;76.92;99154.19;5078956;28;20048;-44
2020/12/08 07:50:22;;;;;;;48.25;26.10;;;;;;;0.95;76.73;99150.78;5078901;28;20049;-44
2020/12/08 07:53:00;;;;;;;71.55;35.08;;;;;;;1.02;76.52;99158.53;5077634;28;20470;-44
2020/12/08 07:55:27;;;;;;;97.32;51.30;;;;;;;1.29;75.70;99162.03;5078790;28;20048;-45
2020/12/08 07:57:53;;;;;;;82.47;41.35;;;;;;;1.08;76.21;99153.41;5077874;28;20444;-45
2020/12/08 08:00:19;;;;;;;96.97;51.63;;;;;;;1.10;76.08;99143.94;5078471;28;20076;-45
2020/12/08 08:02:44;;;;;;;60.63;31.55;;;;;;;1.01;76.58;99161.09;5077336;28;20052;-45
2020/12/08 08:05:10;;;;;;;46.65;25.42;;;;;;;1.16;76.41;99163.72;5078354;28;20044;-44
2020/12/08 08:07:36;;;;;;;52.15;25.10;;;;;;;1.20;76.24;99155.13;5078584;28;20090;-45
2020/12/08 08:10:02;;;;;;;44.60;25.83;;;;;;;1.31;75.88;99156.03;5079001;28;20040;-45
2020/12/08 08:12:28;;;;;;;44.63;25.58;;;;;;;1.31;75.55;99142.28;5078477;28;20056;-45
2020/12/08 08:14:55;;;;;;;48.42;24.88;;;;;;;1.29;75.74;99137.09;5078082;28;20048;-45
2020/12/08 08:17:21;;;;;;;41.42;22.45;;;;;;;1.25;75.80;99142.25;5078085;28;20100;-45
2020/12/08 08:19:47;;;;;;;42.40;24.02;;;;;;;1.38;75.60;99156.91;5077206;28;20044;-45
2020/12/08 08:22:13;;;;;;;43.75;24.00;;;;;;;1.36;75.28;99158.59;5060767;28;20060;-44
2020/12/08 08:24:38;;;;;;;94.00;47.95;;;;;;;1.40;75.15;99166.38;5077360;28;20413;-44
2020/12/08 08:27:04;;;;;;;142.40;55.80;;;;;;;1.30;75.79;99166.31;5077909;28;20036;-44
2020/12/08 08:29:30;;;;;;;310.63;125.10;;;;;;;1.34;76.01;99168.94;5078027;28;20049;-45
2020/12/08 08:31:56;;;;;;;77.55;35.90;;;;;;;1.47;75.26;99181.88;5077188;28;20048;-44
2020/12/08 08:34:22;;;;;;;100.35;47.67;;;;;;;1.47;75.52;99169.81;5077735;28;20087;-45
2020/12/08 08:36:51;;;;;;;74.05;36.13;;;;;;;1.54;75.52;99179.28;5077960;28;20049;-45
2020/12/08 08:39:17;;;;;;;108.70;53.10;;;;;;;1.65;75.02;99181.88;5077667;28;20045;-45
2020/12/08 08:41:43;;;;;;;59.53;30.60;;;;;;;1.59;75.28;99184.44;5077770;28;20135;-45
2020/12/08 08:44:08;;;;;;;53.00;28.35;;;;;;;1.53;75.18;99176.72;5077830;28;20072;-45
2020/12/08 08:46:34;;;;;;;56.38;30.35;;;;;;;1.75;74.71;99183.59;5077442;28;20113;-45
2020/12/08 08:49:00;;;;;;;44.88;24.63;;;;;;;1.71;74.54;99187.03;5076798;28;20063;-45
2020/12/08 08:51:26;;;;;;;44.28;24.48;;;;;;;1.83;73.97;99192.22;5077368;28;20044;-45
2020/12/08 08:53:51;;;;;;;40.20;21.70;;;;;;;1.74;74.22;99184.47;5077652;28;20051;-45
2020/12/08 08:56:18;;;;;;;42.33;23.55;;;;;;;1.79;74.14;99187.94;5077571;28;20399;-45
2020/12/08 08:58:43;;;;;;;48.97;24.00;;;;;;;1.77;74.08;99191.34;5077247;28;20417;-45
2020/12/08 09:01:09;;;;;;;41.67;21.63;;;;;;;1.72;74.12;99187.91;5077451;28;20109;-45
2020/12/08 09:03:35;;;;;;;46.55;25.45;;;;;;;1.86;74.04;99176.72;5076773;28;20061;-44
2020/12/08 09:06:01;;;;;;;41.28;21.67;;;;;;;1.95;73.53;99178.47;5077330;28;20357;-45
2020/12/08 09:08:26;;;;;;;42.63;23.23;;;;;;;1.93;73.67;99175.00;5077032;28;20121;-45
2020/12/08 09:10:52;;;;;;;42.47;21.98;;;;;;;1.99;73.22;99187.06;5077211;28;20048;-45
2020/12/08 09:13:19;;;;;;;47.35;24.67;;;;;;;1.98;73.51;99170.72;5077248;28;20109;-45
2020/12/08 09:15:45;;;;;;;42.67;21.48;;;;;;;2.00;73.69;99171.56;5077035;28;20345;-45
2020/12/08 09:18:11;;;;;;;38.65;21.35;;;;;;;2.06;73.25;99186.19;5075960;28;20441;-45
2020/12/08 09:20:37;;;;;;;41.55;22.10;;;;;;;2.15;72.99;99188.78;5077089;28;20127;-45
2020/12/08 09:23:03;;;;;;;39.97;20.02;;;;;;;1.96;73.21;99180.16;5076826;28;20044;-44
2020/12/08 09:25:28;;;;;;;39.35;22.08;;;;;;;2.11;73.13;99171.53;5076758;28;20119;-45
2020/12/08 09:27:55;;;;;;;41.72;22.50;;;;;;;2.13;72.82;99164.66;5076997;28;20033;-45
2020/12/08 09:30:22;;;;;;;41.00;22.58;;;;;;;2.13;72.85;99177.56;5076825;28;20048;-45
2020/12/08 09:32:48;;;;;;;44.20;22.38;;;;;;;2.12;73.16;99173.28;5076616;28;20338;-45
2020/12/08 09:35:15;;;;;;;43.72;23.10;;;;;;;2.25;72.83;99184.47;5076789;28;20051;-53
2020/12/08 09:37:41;;;;;;;37.33;21.70;;;;;;;2.23;72.62;99181.00;5076421;28;20060;-53
2020/12/08 09:40:07;;;;;;;44.92;22.48;;;;;;;2.17;72.63;99184.44;5076653;28;20365;-52
2020/12/08 09:42:36;;;;;;;42.50;23.10;;;;;;;2.57;72.51;99186.97;5076469;28;20044;-52
2020/12/08 09:45:02;;;;;;;41.15;22.48;;;;;;;2.57;71.92;99193.00;5075876;28;20036;-45
2020/12/08 09:47:28;;;;;;;48.15;25.55;;;;;;;2.70;71.44;99191.25;5075764;28;20067;-45
2020/12/08 09:49:54;;;;;;;45.63;23.83;;;;;;;2.59;71.79;99187.81;5059144;28;20044;-45
2020/12/08 09:52:20;;;;;;;97.38;36.88;;;;;;;2.73;71.48;99190.34;5076289;28;20056;-45
2020/12/08 09:54:46;;;;;;;105.35;39.53;;;;;;;2.71;71.59;99198.13;5075712;28;20056;-45
2020/12/08 09:57:11;;;;;;;50.47;24.60;;;;;;;2.78;70.96;99191.22;5076859;28;20439;-45
2020/12/08 09:59:37;;;;;;;53.45;24.60;;;;;;;2.78;71.04;99194.66;5076486;28;20093;-45
2020/12/08 10:02:04;;;;;;;45.05;24.60;;;;;;;2.76;70.48;99186.06;5076045;28;20044;-46
2020/12/08 10:04:32;;;;;;;43.35;23.92;;;;;;;2.89;70.32;99184.25;5076499;28;20052;-45
2020/12/08 10:06:58;;;;;;;38.45;20.85;;;;;;;2.88;70.58;99179.09;5076615;28;20052;-45
2020/12/08 10:09:24;;;;;;;37.85;21.20;;;;;;;3.02;70.19;99183.38;5075998;28;20353;-45
2020/12/08 10:11:50;;;;;;;42.08;23.13;;;;;;;3.10;69.89;99185.91;5076391;28;20052;-45
2020/12/08 10:14:16;;;;;;;37.13;21.52;;;;;;;3.13;69.79;99185.03;5076023;28;20441;-45
2020/12/08 10:16:42;;;;;;;40.97;22.17;;;;;;;3.20;69.95;99178.97;5075337;28;20052;-45
2020/12/08 10:19:07;;;;;;;39.08;20.95;;;;;;;3.36;69.43;99177.16;5075978;28;20403;-45
2020/12/08 10:21:34;;;;;;;42.45;22.05;;;;;;;3.31;69.11;99174.56;5075206;28;20041;-45
2020/12/08 10:24:00;;;;;;;57.47;28.42;;;;;;;3.36;69.60;99184.91;5075937;28;20449;-45
2020/12/08 10:26:26;;;;;;;132.70;54.38;;;;;;;3.57;68.85;99178.72;5075910;28;20063;-45
2020/12/08 10:28:52;;;;;;;66.00;31.13;;;;;;;3.48;69.34;99184.84;5076481;28;20047;-45
2020/12/08 10:31:18;;;;;;;44.20;22.80;;;;;;;3.51;69.05;99177.06;5074936;28;20085;-45
2020/12/08 10:33:47;;;;;;;39.03;19.50;;;;;;;3.56;68.96;99172.69;5076036;28;20102;-45
2020/12/08 10:36:12;;;;;;;58.58;25.40;;;;;;;3.69;68.48;99182.09;5074994;28;20048;-45
2020/12/08 10:38:38;;;;;;;94.53;36.40;;;;;;;3.58;68.92;99178.75;5076350;28;20083;-45
2020/12/08 10:41:04;;;;;;;53.92;25.05;;;;;;;3.67;68.50;99178.69;5076094;28;20055;-45
2020/12/08 10:43:30;;;;;;;66.03;27.73;;;;;;;3.63;68.56;99163.16;5076029;28;20052;-45
2020/12/08 10:45:56;;;;;;;56.47;25.88;;;;;;;3.71;68.72;99174.34;5075188;28;20067;-45
2020/12/08 10:48:22;;;;;;;78.40;32.15;;;;;;;3.73;68.77;99180.34;5074888;28;20441;-45
2020/12/08 10:50:48;;;;;;;75.97;32.45;;;;;;;3.77;68.58;99171.69;5075050;28;20105;-45
2020/12/08 10:53:14;;;;;;;49.33;23.02;;;;;;;3.95;67.58;99176.72;5074938;28;20044;-45
2020/12/08 10:55:39;;;;;;;39.58;20.65;;;;;;;3.78;68.23;99173.41;5075087;28;20056;-46
2020/12/08 10:58:05;;;;;;;39.80;20.80;;;;;;;3.82;68.40;99167.31;5075587;28;20059;-45
2020/12/08 11:00:31;;;;;;;41.80;22.95;;;;;;;3.91;68.53;99163.81;5075893;28;20045;-45
2020/12/08 11:03:01;;;;;;;73.47;32.60;;;;;;;4.06;67.93;99165.38;5075574;28;20079;-45
2020/12/08 11:05:27;;;;;;;58.80;27.90;;;;;;;4.03;68.25;99173.19;5058249;28;20377;-46
2020/12/08 11:07:53;;;;;;;63.22;29.50;;;;;;;4.13;67.54;99172.25;5074648;28;20060;-45
2020/12/08 11:10:19;;;;;;;56.25;25.83;;;;;;;4.08;67.73;99169.69;5074632;28;20047;-45
2020/12/08 11:12:45;;;;;;;65.53;30.55;;;;;;;4.18;67.75;99175.66;5075380;28;20365;-45
2020/12/08 11:15:11;;;;;;;65.43;26.70;;;;;;;4.37;66.30;99182.38;5075782;28;20105;-54
2020/12/08 11:17:37;;;;;;;72.75;31.05;;;;;;;4.16;67.70;99178.28;5075378;28;20052;-54
2020/12/08 11:20:04;;;;;;;54.00;27.58;;;;;;;4.29;67.27;99170.34;5075117;28;20040;-54
2020/12/08 11:22:31;;;;;;;70.47;30.27;;;;;;;4.17;67.63;99167.03;5075679;28;20334;-54
2020/12/08 11:25:00;;;;;;;69.68;30.58;;;;;;;4.26;67.68;99179.06;5074837;28;20169;-54